createdAt,value
2018-07-19T00:01:46.739Z,2.33
2018-07-19T00:04:20.139Z,2.50
2018-07-19T00:06:53.515Z,2.25
2018-07-19T00:09:26.967Z,3.00
2018-07-19T00:12:00.377Z,2.50
2018-07-19T00:14:33.780Z,2.40
2018-07-19T00:17:07.519Z,2.40
2018-07-19T00:19:40.936Z,2.50
2018-07-19T00:22:14.315Z,2.40
2018-07-19T00:24:47.705Z,3.00
2018-07-19T00:27:21.294Z,2.40
2018-07-19T00:29:54.675Z,2.22
2018-07-19T00:32:28.068Z,2.40
2018-07-19T00:35:01.425Z,2.10
2018-07-19T00:37:34.843Z,2.20
2018-07-19T00:40:08.240Z,2.50
2018-07-19T00:42:41.647Z,2.92
2018-07-19T00:45:15.066Z,2.55
2018-07-19T00:47:48.468Z,2.50
2018-07-19T00:50:21.827Z,2.42
2018-07-19T00:52:55.233Z,2.47
2018-07-19T00:55:28.588Z,2.12
2018-07-19T00:58:01.983Z,2.35
2018-07-19T01:00:35.527Z,2.60
2018-07-19T01:03:08.965Z,2.20
2018-07-19T01:05:42.324Z,2.20
2018-07-19T01:08:15.732Z,2.40
2018-07-19T01:10:49.103Z,2.00
2018-07-19T01:13:22.645Z,2.22
2018-07-19T01:15:56.019Z,2.50
2018-07-19T01:18:29.444Z,2.80
2018-07-19T01:21:02.815Z,2.45
2018-07-19T01:23:36.252Z,2.40
2018-07-19T01:26:09.642Z,2.62
2018-07-19T01:28:43.039Z,2.12
2018-07-19T01:31:16.771Z,2.37
2018-07-19T01:33:50.175Z,2.37
2018-07-19T01:36:23.567Z,2.20
2018-07-19T01:38:56.939Z,2.17
2018-07-19T01:41:41.572Z,2.50
2018-07-19T01:44:14.964Z,2.52
2018-07-19T01:46:48.385Z,2.17
2018-07-19T01:49:21.821Z,2.50
2018-07-19T01:51:55.295Z,2.33
2018-07-19T01:54:28.695Z,2.75
2018-07-19T01:57:02.196Z,2.10
2018-07-19T01:59:35.607Z,3.15
2018-07-19T02:02:09.076Z,2.50
2018-07-19T02:04:42.708Z,2.15
2018-07-19T02:07:16.220Z,2.10
2018-07-19T02:09:49.644Z,2.20
2018-07-19T02:12:23.083Z,3.33
2018-07-19T02:14:56.590Z,2.00
2018-07-19T02:17:30.064Z,2.22
2018-07-19T02:20:03.493Z,2.30
2018-07-19T02:22:36.923Z,1.85
2018-07-19T02:25:10.339Z,2.25
2018-07-19T02:27:43.768Z,2.65
2018-07-19T02:30:17.171Z,2.45
2018-07-19T02:32:50.623Z,2.20
2018-07-19T02:35:24.091Z,2.47
2018-07-19T02:37:57.528Z,2.60
2018-07-19T02:40:30.968Z,2.10
2018-07-19T02:43:04.436Z,2.60
2018-07-19T02:45:37.936Z,2.22
2018-07-19T02:48:11.368Z,2.45
2018-07-19T02:50:44.759Z,2.50
2018-07-19T02:53:18.272Z,2.40
2018-07-19T02:55:51.701Z,2.65
2018-07-19T02:58:25.167Z,2.27
2018-07-19T03:00:58.679Z,2.52
2018-07-19T03:03:32.126Z,2.20
2018-07-19T03:06:05.779Z,2.58
2018-07-19T03:08:39.240Z,2.45
2018-07-19T03:11:12.678Z,2.60
2018-07-19T03:13:46.113Z,1.98
2018-07-19T03:16:19.620Z,2.30
2018-07-19T03:18:53.022Z,2.02
2018-07-19T03:21:26.529Z,2.33
2018-07-19T03:23:59.926Z,2.00
2018-07-19T03:26:33.573Z,2.08
2018-07-19T03:29:07.068Z,2.37
2018-07-19T03:31:40.573Z,2.37
2018-07-19T03:34:14.007Z,2.40
2018-07-19T03:36:47.431Z,2.35
2018-07-19T03:39:20.875Z,2.27
2018-07-19T03:41:54.491Z,2.20
2018-07-19T03:44:28.817Z,2.47
2018-07-19T03:47:02.927Z,2.20
2018-07-19T03:49:36.356Z,2.30
2018-07-19T03:52:09.783Z,2.40
2018-07-19T03:54:43.255Z,2.20
2018-07-19T03:57:16.640Z,2.37
2018-07-19T03:59:50.302Z,2.20
2018-07-19T04:02:23.680Z,1.80
2018-07-19T04:04:57.211Z,2.30
2018-07-19T04:07:30.604Z,2.40
2018-07-19T04:10:04.199Z,2.63
2018-07-19T04:12:37.597Z,2.15
2018-07-19T04:15:11.047Z,2.20
2018-07-19T04:17:50.683Z,2.10
2018-07-19T04:20:25.655Z,2.30
2018-07-19T04:22:59.063Z,2.37
2018-07-19T04:25:32.484Z,2.23
2018-07-19T04:28:05.932Z,2.47
2018-07-19T04:30:39.354Z,2.60
2018-07-19T04:33:12.762Z,2.30
2018-07-19T04:35:46.323Z,2.20
2018-07-19T04:38:19.828Z,2.08
2018-07-19T04:40:53.172Z,2.12
2018-07-19T04:43:26.595Z,2.40
2018-07-19T04:46:00.354Z,2.12
2018-07-19T04:48:33.799Z,2.50
2018-07-19T04:51:07.328Z,2.10
2018-07-19T04:53:40.734Z,1.90
2018-07-19T04:56:14.176Z,1.95
2018-07-19T04:58:47.600Z,1.90
2018-07-19T05:01:21.051Z,1.95
2018-07-19T05:03:54.583Z,2.02
2018-07-19T05:06:27.990Z,2.25
2018-07-19T05:09:01.375Z,2.25
2018-07-19T05:11:34.848Z,1.95
2018-07-19T05:14:08.343Z,2.20
2018-07-19T05:16:41.712Z,1.95
2018-07-19T05:19:15.094Z,2.15
2018-07-19T05:21:48.503Z,1.90
2018-07-19T05:24:21.864Z,2.20
2018-07-19T05:26:55.282Z,2.10
2018-07-19T05:29:28.651Z,2.02
2018-07-19T05:32:02.017Z,1.80
2018-07-19T05:34:35.420Z,2.22
2018-07-19T05:37:08.909Z,2.00
2018-07-19T05:39:42.309Z,2.08
2018-07-19T05:42:15.734Z,2.08
2018-07-19T05:44:49.155Z,1.87
2018-07-19T05:47:22.642Z,1.90
2018-07-19T05:49:56.130Z,1.60
2018-07-19T05:52:29.548Z,1.87
2018-07-19T05:55:03.573Z,1.90
2018-07-19T05:57:37.121Z,1.65
2018-07-19T06:00:10.527Z,1.60
2018-07-19T06:02:43.967Z,1.35
2018-07-19T06:05:17.405Z,1.72
2018-07-19T06:07:50.786Z,1.60
2018-07-19T06:10:24.188Z,1.75
2018-07-19T06:12:57.604Z,1.42
2018-07-19T06:15:31.030Z,1.30
2018-07-19T06:18:04.459Z,1.50
2018-07-19T06:20:37.913Z,1.20
2018-07-19T06:23:11.303Z,1.67
2018-07-19T06:25:44.724Z,1.40
2018-07-19T06:28:18.178Z,1.07
2018-07-19T06:30:51.567Z,1.32
2018-07-19T06:33:24.973Z,1.17
2018-07-19T06:35:58.915Z,1.30
2018-07-19T06:38:32.325Z,1.42
2018-07-19T06:41:05.834Z,1.72
2018-07-19T06:43:39.241Z,1.30
2018-07-19T06:46:12.729Z,1.17
2018-07-19T06:48:46.113Z,1.30
2018-07-19T06:51:19.507Z,1.60
2018-07-19T06:53:52.886Z,1.80
2018-07-19T06:56:26.300Z,1.40
2018-07-19T06:58:59.669Z,1.30
2018-07-19T07:01:33.101Z,1.52
2018-07-19T07:04:06.514Z,1.30
2018-07-19T07:06:39.934Z,1.57
2018-07-19T07:09:13.452Z,1.32
2018-07-19T07:11:47.009Z,1.70
2018-07-19T07:14:20.377Z,1.65
2018-07-19T07:16:53.818Z,1.50
2018-07-19T07:19:27.223Z,1.47
2018-07-19T07:22:00.660Z,1.57
2018-07-19T07:24:34.424Z,1.60
2018-07-19T07:27:07.855Z,1.57
2018-07-19T07:29:41.250Z,1.52
2018-07-19T07:32:16.145Z,2.00
2018-07-19T07:34:49.693Z,1.50
2018-07-19T07:37:23.179Z,1.67
2018-07-19T07:39:56.625Z,2.05
2018-07-19T07:42:30.056Z,1.92
2018-07-19T07:45:03.513Z,1.65
2018-07-19T07:47:36.969Z,1.95
2018-07-19T07:50:10.399Z,1.98
2018-07-19T07:52:43.820Z,1.98
2018-07-19T07:55:17.236Z,1.90
2018-07-19T07:57:50.670Z,1.70
2018-07-19T08:00:24.086Z,1.90
2018-07-19T08:02:57.531Z,1.85
2018-07-19T08:05:30.936Z,1.90
2018-07-19T08:08:04.479Z,2.45
2018-07-19T08:10:37.892Z,2.20
2018-07-19T08:13:11.359Z,1.90
2018-07-19T08:15:44.880Z,1.90
2018-07-19T08:18:18.381Z,2.17
2018-07-19T08:20:51.787Z,2.22
2018-07-19T08:23:25.237Z,2.22
2018-07-19T08:25:58.733Z,2.50
2018-07-19T08:28:32.170Z,2.20
2018-07-19T08:31:05.662Z,2.17
2018-07-19T08:33:39.152Z,2.33
2018-07-19T08:36:13.587Z,2.08
2018-07-19T08:38:46.991Z,2.12
2018-07-19T08:41:20.423Z,2.40
2018-07-19T08:43:53.872Z,2.35
2018-07-19T08:46:27.296Z,1.75
2018-07-19T08:49:00.712Z,7.37
2018-07-19T08:51:34.137Z,2.52
2018-07-19T08:54:07.649Z,2.08
2018-07-19T08:56:41.074Z,2.45
2018-07-19T08:59:14.536Z,2.05
2018-07-19T09:01:47.990Z,2.10
2018-07-19T09:04:21.452Z,2.00
2018-07-19T09:06:54.877Z,2.10
2018-07-19T09:09:28.297Z,2.30
2018-07-19T09:12:01.692Z,2.15
2018-07-19T09:14:35.105Z,2.20
2018-07-19T09:17:08.564Z,2.25
2018-07-19T09:19:42.016Z,2.15
2018-07-19T09:22:15.416Z,2.00
2018-07-19T09:24:48.856Z,2.02
2018-07-19T09:27:22.712Z,2.40
2018-07-19T09:29:56.118Z,2.27
2018-07-19T09:32:29.539Z,2.27
2018-07-19T09:35:02.982Z,2.40
2018-07-19T09:37:36.430Z,2.10
2018-07-19T09:40:10.186Z,2.50
2018-07-19T09:42:43.624Z,2.25
2018-07-19T09:45:17.035Z,2.00
2018-07-19T09:47:50.471Z,2.02
2018-07-19T09:50:23.899Z,2.35
2018-07-19T09:52:57.340Z,2.12
2018-07-19T09:55:30.726Z,2.12
2018-07-19T09:58:04.183Z,2.25
2018-07-19T10:00:43.028Z,2.27
2018-07-19T10:03:16.456Z,2.15
2018-07-19T10:05:49.912Z,2.45
2018-07-19T10:08:23.316Z,2.27
2018-07-19T10:10:56.770Z,2.80
2018-07-19T10:13:30.281Z,2.22
2018-07-19T10:16:03.762Z,2.47
2018-07-19T10:18:37.145Z,2.02
2018-07-19T10:21:10.731Z,2.30
2018-07-19T10:23:44.135Z,2.40
2018-07-19T10:26:17.517Z,2.70
2018-07-19T10:28:50.931Z,2.47
2018-07-19T10:31:24.333Z,2.30
2018-07-19T10:33:57.748Z,2.85
2018-07-19T10:36:31.133Z,2.10
2018-07-19T10:39:05.998Z,2.20
2018-07-19T10:41:39.485Z,2.52
2018-07-19T10:44:12.896Z,2.35
2018-07-19T10:46:46.283Z,2.20
2018-07-19T10:49:19.719Z,2.70
2018-07-19T10:51:53.129Z,2.27
2018-07-19T10:54:26.472Z,2.50
2018-07-19T10:56:59.828Z,2.50
2018-07-19T10:59:33.211Z,2.55
2018-07-19T11:02:06.635Z,2.55
2018-07-19T11:04:40.017Z,2.60
2018-07-19T11:07:13.419Z,2.40
2018-07-19T11:09:47.243Z,2.35
2018-07-19T11:12:20.622Z,2.50
2018-07-19T11:14:54.005Z,2.70
2018-07-19T11:17:27.603Z,2.40
2018-07-19T11:20:00.973Z,2.70
2018-07-19T11:22:34.363Z,2.58
2018-07-19T11:25:07.774Z,2.55
2018-07-19T11:27:41.145Z,2.72
2018-07-19T11:30:14.555Z,2.77
2018-07-19T11:32:47.928Z,2.30
2018-07-19T11:35:21.401Z,2.87
2018-07-19T11:37:54.716Z,2.52
2018-07-19T11:40:28.152Z,2.77
2018-07-19T11:43:01.717Z,2.45
2018-07-19T11:45:35.083Z,2.40
2018-07-19T11:48:08.488Z,2.62
2018-07-19T11:50:41.859Z,2.45
2018-07-19T11:53:15.233Z,2.50
2018-07-19T11:55:48.617Z,2.37
2018-07-19T11:58:22.212Z,2.20
2018-07-19T12:00:55.609Z,2.60
2018-07-19T12:03:28.984Z,2.35
2018-07-19T12:06:02.415Z,3.00
2018-07-19T12:08:35.778Z,2.90
2018-07-19T12:11:09.207Z,2.40
2018-07-19T12:13:42.600Z,2.27
2018-07-19T12:16:16.075Z,2.60
2018-07-19T12:18:49.456Z,2.90
2018-07-19T12:21:22.879Z,2.80
2018-07-19T12:23:56.496Z,2.20
2018-07-19T12:26:29.955Z,2.20
2018-07-19T12:29:03.349Z,2.85
2018-07-19T12:31:36.783Z,2.60
2018-07-19T12:34:10.211Z,2.10
2018-07-19T12:36:43.615Z,2.50
2018-07-19T12:39:17.005Z,2.52
2018-07-19T12:41:50.439Z,2.60
2018-07-19T12:44:23.857Z,2.17
2018-07-19T12:46:57.300Z,2.47
2018-07-19T12:49:30.680Z,2.15
2018-07-19T12:52:04.249Z,2.40
2018-07-19T12:54:37.580Z,2.50
2018-07-19T12:57:11.025Z,2.35
2018-07-19T12:59:44.479Z,2.67
2018-07-19T13:02:17.905Z,2.75
2018-07-19T13:04:51.383Z,2.20
2018-07-19T13:07:24.796Z,2.15
2018-07-19T13:09:58.194Z,2.40
2018-07-19T13:12:31.628Z,2.25
2018-07-19T13:15:06.333Z,2.25
2018-07-19T13:17:39.913Z,2.37
2018-07-19T13:20:13.326Z,2.15
2018-07-19T13:22:46.734Z,2.37
2018-07-19T13:25:20.108Z,2.40
2018-07-19T13:27:53.524Z,2.47
2018-07-19T13:30:26.932Z,2.40
2018-07-19T13:33:00.355Z,2.22
2018-07-19T13:35:33.740Z,2.30
2018-07-19T13:38:07.143Z,2.45
2018-07-19T13:40:40.556Z,2.20
2018-07-19T13:43:13.956Z,2.62
2018-07-19T13:45:47.367Z,2.40
2018-07-19T13:48:20.853Z,2.22
2018-07-19T13:50:54.292Z,2.33
2018-07-19T13:53:40.215Z,2.17
2018-07-19T13:56:13.647Z,2.33
2018-07-19T13:58:47.071Z,2.12
2018-07-19T14:01:20.476Z,2.00
2018-07-19T14:03:53.900Z,2.05
2018-07-19T14:06:27.302Z,2.20
2018-07-19T14:09:00.712Z,2.20
2018-07-19T14:11:34.104Z,2.05
2018-07-19T14:14:07.613Z,2.33
2018-07-19T14:16:40.994Z,2.30
2018-07-19T14:19:14.419Z,2.70
2018-07-19T14:21:47.785Z,2.10
2018-07-19T14:24:21.167Z,2.40
2018-07-19T14:26:54.513Z,2.33
2018-07-19T14:29:27.924Z,2.08
2018-07-19T14:32:01.343Z,2.45
2018-07-19T14:34:34.769Z,2.22
2018-07-19T14:37:08.135Z,2.17
2018-07-19T14:39:41.516Z,2.30
2018-07-19T14:42:14.998Z,2.33
2018-07-19T14:44:48.399Z,2.47
2018-07-19T14:47:21.792Z,2.50
2018-07-19T14:49:55.162Z,2.27
2018-07-19T14:52:28.540Z,2.27
2018-07-19T14:55:01.941Z,3.62
2018-07-19T14:57:35.403Z,2.50
2018-07-19T15:00:09.591Z,2.17
2018-07-19T15:02:43.061Z,2.00
2018-07-19T15:05:16.508Z,2.12
2018-07-19T15:07:49.866Z,2.47
2018-07-19T15:10:23.563Z,2.33
2018-07-19T15:12:56.991Z,2.33
2018-07-19T15:15:30.592Z,2.12
2018-07-19T15:18:04.009Z,2.17
2018-07-19T15:20:37.404Z,2.30
2018-07-19T15:23:11.607Z,2.27
2018-07-19T15:25:45.131Z,2.50
2018-07-19T15:28:18.590Z,2.10
2018-07-19T15:30:52.313Z,2.37
2018-07-19T15:33:25.714Z,2.62
2018-07-19T15:35:59.106Z,2.58
2018-07-19T15:38:32.488Z,2.35
2018-07-19T15:41:05.897Z,2.55
2018-07-19T15:43:39.296Z,2.77
2018-07-19T15:46:12.680Z,2.12
2018-07-19T15:48:46.073Z,2.70
2018-07-19T15:51:19.517Z,2.60
2018-07-19T15:53:52.932Z,2.42
2018-07-19T15:56:26.357Z,2.50
2018-07-19T15:58:59.735Z,2.85
2018-07-19T16:01:33.209Z,2.25
2018-07-19T16:04:06.606Z,2.15
2018-07-19T16:06:40.862Z,2.65
2018-07-19T16:09:14.220Z,2.52
2018-07-19T16:11:47.654Z,2.55
2018-07-19T16:14:21.148Z,2.70
2018-07-19T16:16:54.564Z,2.37
2018-07-19T16:19:27.931Z,2.30
2018-07-19T16:22:01.315Z,3.10
2018-07-19T16:24:34.715Z,2.50
2018-07-19T16:27:08.121Z,2.62
2018-07-19T16:29:41.501Z,2.62
2018-07-19T16:32:14.891Z,2.27
2018-07-19T16:34:48.292Z,2.75
2018-07-19T16:37:22.065Z,2.62
2018-07-19T16:39:55.451Z,2.60
2018-07-19T16:42:28.856Z,2.40
2018-07-19T16:45:02.265Z,2.58
2018-07-19T16:47:35.719Z,2.67
2018-07-19T16:50:09.136Z,2.30
2018-07-19T16:52:42.537Z,2.42
2018-07-19T16:55:15.909Z,2.25
2018-07-19T16:57:49.295Z,2.20
2018-07-19T17:00:22.692Z,2.35
2018-07-19T17:02:56.129Z,2.87
2018-07-19T17:05:29.517Z,2.70
2018-07-19T17:08:02.981Z,2.90
2018-07-19T17:10:36.370Z,2.50
2018-07-19T17:13:09.974Z,2.50
2018-07-19T17:15:43.335Z,2.60
2018-07-19T17:18:16.739Z,2.35
2018-07-19T17:20:50.100Z,2.50
2018-07-19T17:23:23.475Z,2.50
2018-07-19T17:25:56.866Z,2.30
2018-07-19T17:28:30.253Z,2.47
2018-07-19T17:31:03.594Z,2.52
2018-07-19T17:33:36.977Z,2.62
2018-07-19T17:36:10.480Z,2.47
2018-07-19T17:38:43.881Z,2.60
2018-07-19T17:41:17.277Z,2.30
2018-07-19T17:43:50.643Z,2.87
2018-07-19T17:46:24.017Z,3.25
2018-07-19T17:48:57.414Z,2.60
2018-07-19T17:51:30.857Z,2.40
2018-07-19T17:54:04.342Z,2.37
2018-07-19T17:56:37.914Z,2.70
2018-07-19T17:59:11.351Z,2.75
2018-07-19T18:01:44.813Z,2.70
2018-07-19T18:04:18.289Z,3.20
2018-07-19T18:06:51.663Z,2.67
2018-07-19T18:09:25.071Z,2.52
2018-07-19T18:11:58.456Z,2.65
2018-07-19T18:14:31.859Z,2.75
2018-07-19T18:17:05.352Z,3.02
2018-07-19T18:19:38.728Z,3.05
2018-07-19T18:22:12.114Z,2.67
2018-07-19T18:24:46.698Z,2.70
2018-07-19T18:27:20.140Z,2.60
2018-07-19T18:29:53.573Z,2.62
2018-07-19T18:32:26.983Z,2.92
2018-07-19T18:35:00.438Z,2.95
2018-07-19T18:37:33.849Z,2.90
2018-07-19T18:40:07.362Z,2.98
2018-07-19T18:42:40.735Z,2.77
2018-07-19T18:45:14.108Z,2.65
2018-07-19T18:47:47.567Z,2.90
2018-07-19T18:50:20.939Z,2.98
2018-07-19T18:52:54.353Z,2.60
2018-07-19T18:55:27.771Z,2.83
2018-07-19T18:58:01.238Z,3.47
2018-07-19T19:00:34.644Z,2.83
2018-07-19T19:03:08.359Z,3.08
2018-07-19T19:05:41.846Z,3.10
2018-07-19T19:08:15.227Z,2.85
2018-07-19T19:10:48.620Z,3.00
2018-07-19T19:13:22.109Z,2.87
2018-07-19T19:15:55.505Z,3.33
2018-07-19T19:18:28.905Z,3.20
2018-07-19T19:21:02.363Z,3.20
2018-07-19T19:23:35.824Z,2.47
2018-07-19T19:26:09.763Z,2.77
2018-07-19T19:28:43.591Z,2.90
2018-07-19T19:31:17.252Z,2.85
2018-07-19T19:33:50.681Z,3.00
2018-07-19T19:36:24.059Z,3.08
2018-07-19T19:38:57.580Z,3.05
2018-07-19T19:41:31.136Z,3.15
2018-07-19T19:44:04.569Z,3.25
2018-07-19T19:46:37.997Z,2.98
2018-07-19T19:49:11.484Z,3.25
2018-07-19T19:51:44.885Z,3.30
2018-07-19T19:54:18.333Z,3.10
2018-07-19T19:56:51.688Z,2.98
2018-07-19T19:59:25.101Z,3.58
2018-07-19T20:01:58.476Z,3.60
2018-07-19T20:04:31.866Z,2.98
2018-07-19T20:07:05.262Z,3.40
2018-07-19T20:09:38.675Z,3.50
2018-07-19T20:12:12.079Z,3.30
2018-07-19T20:14:45.764Z,3.20
2018-07-19T20:17:19.141Z,3.67
2018-07-19T20:19:52.524Z,3.77
2018-07-19T20:22:25.904Z,3.77
2018-07-19T20:24:59.384Z,3.40
2018-07-19T20:27:32.728Z,3.65
2018-07-19T20:30:06.167Z,3.92
2018-07-19T20:32:39.559Z,3.77
2018-07-19T20:35:12.934Z,3.70
2018-07-19T20:37:46.297Z,3.42
2018-07-19T20:40:19.672Z,3.70
2018-07-19T20:42:53.224Z,4.10
2018-07-19T20:45:26.799Z,3.83
2018-07-19T20:48:00.127Z,3.75
2018-07-19T20:50:33.518Z,3.60
2018-07-19T20:53:06.874Z,4.35
2018-07-19T20:55:40.357Z,3.90
2018-07-19T20:58:13.711Z,3.55
2018-07-19T21:00:47.335Z,4.10
2018-07-19T21:03:20.951Z,4.45
2018-07-19T21:05:54.404Z,4.17
2018-07-19T21:08:27.818Z,3.85
2018-07-19T21:11:01.390Z,4.85
2018-07-19T21:13:35.375Z,4.22
2018-07-19T21:16:08.913Z,3.58
2018-07-19T21:18:42.378Z,4.10
2018-07-19T21:21:15.772Z,4.08
2018-07-19T21:23:49.191Z,4.05
2018-07-19T21:26:22.583Z,4.03
2018-07-19T21:28:56.112Z,3.92
2018-07-19T21:31:30.304Z,4.00
2018-07-19T21:34:04.354Z,3.65
2018-07-19T21:36:38.696Z,4.30
2018-07-19T21:39:13.442Z,4.72
2018-07-19T21:41:47.719Z,4.08
2018-07-19T21:44:21.168Z,3.92
2018-07-19T21:46:54.632Z,4.80
2018-07-19T21:49:28.042Z,4.10
2018-07-19T21:52:01.468Z,4.12
2018-07-19T21:54:34.956Z,3.40
2018-07-19T21:57:08.371Z,4.20
2018-07-19T21:59:41.776Z,3.90
2018-07-19T22:02:15.489Z,4.25
2018-07-19T22:04:48.940Z,3.60
2018-07-19T22:07:22.361Z,3.70
2018-07-19T22:09:55.781Z,3.33
2018-07-19T22:12:29.191Z,3.62
2018-07-19T22:15:02.577Z,3.72
2018-07-19T22:17:35.988Z,3.42
2018-07-19T22:20:09.355Z,3.92
2018-07-19T22:22:42.735Z,3.45
2018-07-19T22:25:16.095Z,3.87
2018-07-19T22:27:49.523Z,4.00
2018-07-19T22:30:22.920Z,3.80
2018-07-19T22:37:48.744Z,3.55
2018-07-19T22:40:22.117Z,4.85
2018-07-19T22:42:55.494Z,4.20
2018-07-19T22:45:28.922Z,3.37
2018-07-19T22:48:02.299Z,3.87
2018-07-19T22:50:35.658Z,4.05
2018-07-19T22:53:09.053Z,3.65
2018-07-19T22:55:42.451Z,3.62
2018-07-19T22:58:15.841Z,3.77
2018-07-19T23:00:49.276Z,3.87
2018-07-19T23:03:22.990Z,3.70
2018-07-19T23:05:56.376Z,3.90
2018-07-19T23:08:29.759Z,3.77
2018-07-19T23:11:03.152Z,3.75
2018-07-19T23:13:36.619Z,4.20
2018-07-19T23:16:10.935Z,3.90
2018-07-19T23:18:44.435Z,4.10
2018-07-19T23:21:17.831Z,3.67
2018-07-19T23:23:51.192Z,4.30
2018-07-19T23:26:24.907Z,3.87
2018-07-19T23:28:58.447Z,4.37
2018-07-19T23:31:31.875Z,3.50
2018-07-19T23:34:05.565Z,4.15
2018-07-19T23:36:45.537Z,3.80
2018-07-19T23:39:29.463Z,3.52
2018-07-19T23:42:08.207Z,4.10
2018-07-19T23:44:50.199Z,3.52
2018-07-19T23:47:26.943Z,3.47
2018-07-19T23:50:00.325Z,3.70
2018-07-19T23:52:33.725Z,3.85
2018-07-19T23:55:07.157Z,3.47
2018-07-19T23:57:40.543Z,3.80
